createdAt,value
2023-03-05T00:01:30.141Z,99896.55
2023-03-05T00:04:01.142Z,99894.18
2023-03-05T00:06:33.816Z,99894.16
2023-03-05T00:09:05.307Z,99895.20
2023-03-05T00:11:36.427Z,99892.84
2023-03-05T00:14:11.135Z,99888.48
2023-03-05T00:16:42.577Z,99886.94
2023-03-05T00:19:14.807Z,99887.06
2023-03-05T00:21:46.394Z,99882.80
2023-03-05T00:24:20.544Z,99882.55
2023-03-05T00:26:51.294Z,99885.02
2023-03-05T00:29:24.196Z,99882.11
2023-03-05T00:31:55.128Z,99877.04
2023-03-05T00:34:25.899Z,99870.81
2023-03-05T00:36:56.730Z,99866.95
2023-03-05T00:39:29.097Z,99864.41
2023-03-05T00:42:01.351Z,99864.52
2023-03-05T00:44:32.608Z,99859.27
2023-03-05T00:47:05.006Z,99858.03
2023-03-05T00:49:35.940Z,99851.61
2023-03-05T00:52:08.727Z,99850.08
2023-03-05T00:54:45.094Z,99848.89
2023-03-05T00:57:15.774Z,99847.21
2023-03-05T00:59:46.700Z,99844.86
2023-03-05T01:02:17.655Z,99841.89
2023-03-05T01:04:48.789Z,99841.20
2023-03-05T01:07:19.637Z,99835.31
2023-03-05T01:09:50.374Z,99830.80
2023-03-05T01:12:21.262Z,99828.42
2023-03-05T01:14:52.308Z,99822.90
2023-03-05T01:17:23.865Z,99821.40
2023-03-05T01:19:54.768Z,99823.07
2023-03-05T01:22:25.916Z,99819.66
2023-03-05T01:25:00.768Z,99816.96
2023-03-05T01:27:33.175Z,99816.80
2023-03-05T01:30:04.998Z,99812.44
2023-03-05T01:32:36.033Z,99814.61
2023-03-05T01:35:08.812Z,99810.42
2023-03-05T01:37:39.601Z,99809.09
2023-03-05T01:40:14.270Z,99809.39
2023-03-05T01:42:49.282Z,99808.35
2023-03-05T01:45:22.450Z,99804.96
2023-03-05T01:47:55.690Z,99804.77
2023-03-05T01:50:28.663Z,99802.74
2023-03-05T01:53:03.675Z,99799.35
2023-03-05T01:55:37.362Z,99798.81
2023-03-05T01:58:12.940Z,99795.30
2023-03-05T02:00:47.860Z,99790.73
2023-03-05T02:03:19.613Z,99791.23
2023-03-05T02:05:50.756Z,99788.55
2023-03-05T02:08:25.295Z,99785.23
2023-03-05T02:10:58.418Z,99786.23
2023-03-05T02:13:34.389Z,99785.71
2023-03-05T02:20:23.614Z,99783.75
2023-03-05T02:22:55.391Z,99781.46
2023-03-05T02:25:28.787Z,99782.83
2023-03-05T02:28:27.389Z,99779.61
2023-03-05T02:30:58.647Z,99774.23
2023-03-05T02:33:29.856Z,99771.85
2023-03-05T02:36:06.833Z,99770.00
2023-03-05T02:38:38.193Z,99769.51
2023-03-05T02:41:36.875Z,99768.30
2023-03-05T02:44:32.306Z,99765.94
2023-03-05T02:47:03.074Z,99761.88
2023-03-05T02:49:35.743Z,99758.87
2023-03-05T02:52:10.622Z,99759.73
2023-03-05T03:02:35.344Z,99752.74
2023-03-05T03:08:53.001Z,99749.96
2023-03-05T03:11:23.818Z,99751.29
2023-03-05T03:15:32.472Z,99750.44
2023-03-05T03:18:03.227Z,99748.16
2023-03-05T03:20:35.056Z,99747.67
2023-03-05T03:42:23.067Z,99736.05
2023-03-05T03:44:53.934Z,99732.52
2023-03-05T03:48:20.893Z,99728.45
2023-03-05T03:50:51.662Z,99722.67
2023-03-05T03:53:22.478Z,99721.23
2023-03-05T03:55:58.574Z,99719.64
2023-03-05T03:58:54.284Z,99719.86
2023-03-05T04:01:25.271Z,99717.08
2023-03-05T04:04:09.004Z,99712.67
2023-03-05T04:06:39.921Z,99715.67
2023-03-05T04:09:11.217Z,99709.60
2023-03-05T04:12:12.191Z,99709.43
2023-03-05T04:15:27.833Z,99703.18
2023-03-05T04:17:58.578Z,99699.77
2023-03-05T04:20:29.328Z,99695.70
2023-03-05T04:23:02.913Z,99695.70
2023-03-05T04:25:33.597Z,99693.02
2023-03-05T04:28:04.339Z,99693.36
2023-03-05T04:30:35.101Z,99688.48
2023-03-05T04:33:06.249Z,99683.95
2023-03-05T04:35:37.065Z,99682.90
2023-03-05T04:38:08.050Z,99683.77
2023-03-05T04:40:39.115Z,99677.44
2023-03-05T04:43:10.275Z,99679.45
2023-03-05T04:45:44.251Z,99675.98
2023-03-05T04:48:15.020Z,99674.50
2023-03-05T04:50:46.198Z,99671.17
2023-03-05T04:53:16.894Z,99668.50
2023-03-05T04:55:47.593Z,99663.15
2023-03-05T04:58:18.375Z,99660.54
2023-03-05T05:00:49.116Z,99655.40
2023-03-05T05:03:22.250Z,99657.80
2023-03-05T05:06:02.005Z,99650.79
2023-03-05T05:08:32.747Z,99649.83
2023-03-05T05:11:06.789Z,99648.98
2023-03-05T05:13:37.753Z,99642.66
2023-03-05T05:16:10.311Z,99639.54
2023-03-05T05:18:41.114Z,99640.10
2023-03-05T05:21:14.495Z,99642.11
2023-03-05T05:23:45.471Z,99637.16
2023-03-05T05:26:17.066Z,99636.55
2023-03-05T05:28:47.791Z,99635.62
2023-03-05T05:31:19.729Z,99636.38
2023-03-05T05:33:50.521Z,99637.84
2023-03-05T05:36:22.538Z,99641.79
2023-03-05T05:38:54.556Z,99640.05
2023-03-05T05:41:25.325Z,99641.19
2023-03-05T05:43:56.010Z,99643.00
2023-03-05T05:46:26.748Z,99643.29
2023-03-05T05:49:01.196Z,99645.76
2023-03-05T05:51:31.971Z,99638.33
2023-03-05T05:54:02.714Z,99643.63
2023-03-05T05:56:34.028Z,99641.77
2023-03-05T05:59:04.768Z,99641.20
2023-03-05T06:01:36.560Z,99643.55
2023-03-05T06:04:07.405Z,99641.14
2023-03-05T06:06:38.323Z,99639.09
2023-03-05T06:09:09.073Z,99638.74
2023-03-05T06:11:39.850Z,99630.30
2023-03-05T06:14:11.048Z,99626.45
2023-03-05T06:16:42.722Z,99619.15
2023-03-05T06:19:15.104Z,99616.18
2023-03-05T06:21:46.467Z,99601.64
2023-03-05T06:24:19.370Z,99597.02
2023-03-05T06:26:50.560Z,99589.77
2023-03-05T06:29:21.285Z,99583.23
2023-03-05T06:31:52.055Z,99570.39
2023-03-05T06:34:22.804Z,99563.84
2023-03-05T06:36:53.600Z,99564.89
2023-03-05T06:39:24.344Z,99566.94
2023-03-05T06:41:55.035Z,99567.73
2023-03-05T06:44:25.901Z,99566.52
2023-03-05T06:46:56.661Z,99563.97
2023-03-05T06:49:27.467Z,99563.61
2023-03-05T06:52:01.480Z,99560.90
2023-03-05T06:54:32.315Z,99548.11
2023-03-05T06:57:03.065Z,99541.38
2023-03-05T06:59:34.393Z,99542.14
2023-03-05T07:02:05.178Z,99544.02
2023-03-05T07:04:35.989Z,99537.48
2023-03-05T07:07:06.760Z,99529.90
2023-03-05T07:09:42.894Z,99531.31
2023-03-05T07:12:13.881Z,99532.42
2023-03-05T07:14:48.115Z,99540.98
2023-03-05T07:17:18.988Z,99548.14
2023-03-05T07:19:49.711Z,99546.77
2023-03-05T07:22:20.954Z,99549.81
2023-03-05T07:24:56.118Z,99551.34
2023-03-05T07:27:27.078Z,99551.34
2023-03-05T07:30:09.140Z,99549.47
2023-03-05T07:32:42.913Z,99543.38
2023-03-05T07:35:14.045Z,99545.76
2023-03-05T07:37:44.821Z,99544.39
2023-03-05T07:40:15.979Z,99538.41
2023-03-05T07:42:46.886Z,99540.64
2023-03-05T07:45:27.912Z,99544.73
2023-03-05T07:48:01.286Z,99542.55
2023-03-05T07:50:33.448Z,99546.48
2023-03-05T07:53:04.737Z,99553.11
2023-03-05T07:55:38.056Z,99546.20
2023-03-05T07:58:08.835Z,99546.21
2023-03-05T08:00:40.831Z,99546.73
2023-03-05T08:03:11.740Z,99546.23
2023-03-05T08:05:44.305Z,99542.65
2023-03-05T08:08:18.910Z,99541.09
2023-03-05T08:10:50.293Z,99544.77
2023-03-05T08:13:21.409Z,99543.23
2023-03-05T08:15:52.708Z,99544.71
2023-03-05T08:18:23.514Z,99547.86
2023-03-05T08:20:54.609Z,99545.95
2023-03-05T08:23:25.692Z,99544.20
2023-03-05T08:25:57.574Z,99545.31
2023-03-05T08:28:29.644Z,99544.23
2023-03-05T08:31:00.677Z,99544.17
2023-03-05T08:33:35.323Z,99545.14
2023-03-05T08:36:07.386Z,99544.73
2023-03-05T08:38:38.350Z,99544.00
2023-03-05T08:41:09.467Z,99545.96
2023-03-05T08:43:40.610Z,99547.09
2023-03-05T08:46:12.978Z,99546.85
2023-03-05T08:48:43.871Z,99544.77
2023-03-05T08:51:17.277Z,99541.04
2023-03-05T08:53:48.964Z,99542.48
2023-03-05T08:56:20.136Z,99546.37
2023-03-05T08:58:56.596Z,99544.63
2023-03-05T09:01:27.984Z,99547.64
2023-03-05T09:03:59.405Z,99544.73
2023-03-05T09:06:45.534Z,99539.47
2023-03-05T09:09:16.383Z,99540.46
2023-03-05T09:11:48.840Z,99540.95
2023-03-05T09:14:22.320Z,99545.13
2023-03-05T09:16:53.284Z,99537.65
2023-03-05T09:19:24.210Z,99542.52
2023-03-05T09:21:56.941Z,99538.45
2023-03-05T09:24:28.180Z,99534.91
2023-03-05T09:27:02.725Z,99534.73
2023-03-05T09:29:33.976Z,99537.14
2023-03-05T09:32:05.760Z,99538.71
2023-03-05T09:34:38.136Z,99536.36
2023-03-05T09:37:11.000Z,99537.05
2023-03-05T09:39:42.742Z,99537.58
2023-03-05T09:42:29.816Z,99535.42
2023-03-05T09:45:14.840Z,99536.12
2023-03-05T09:47:56.935Z,99537.48
2023-03-05T09:50:38.738Z,99534.48
2023-03-05T09:53:20.268Z,99535.83
2023-03-05T09:55:55.773Z,99529.94
2023-03-05T09:58:36.665Z,99528.45
2023-03-05T10:01:11.534Z,99531.35
2023-03-05T10:03:53.123Z,99529.34
2023-03-05T10:06:27.552Z,99532.06
2023-03-05T10:09:05.174Z,99530.57
2023-03-05T10:11:46.079Z,99530.25
2023-03-05T10:14:22.853Z,99529.24
2023-03-05T10:17:21.113Z,99529.56
2023-03-05T10:20:32.502Z,99525.85
2023-03-05T10:23:18.129Z,99523.66
2023-03-05T10:25:55.425Z,99519.95
2023-03-05T10:28:35.730Z,99523.33
2023-03-05T10:31:24.905Z,99518.26
2023-03-05T10:34:05.997Z,99516.74
2023-03-05T10:36:49.245Z,99515.23
2023-03-05T10:39:48.033Z,99513.21
2023-03-05T10:42:31.013Z,99507.96
2023-03-05T10:45:09.714Z,99507.30
2023-03-05T10:47:46.894Z,99502.42
2023-03-05T10:50:21.551Z,99498.38
2023-03-05T10:53:08.718Z,99496.20
2023-03-05T10:55:39.648Z,99490.64
2023-03-05T10:58:27.510Z,99488.11
2023-03-05T11:01:04.272Z,99481.17
2023-03-05T11:03:57.594Z,99484.73
2023-03-05T11:06:34.055Z,99479.84
2023-03-05T11:09:19.982Z,99483.21
2023-03-05T11:12:08.628Z,99477.80
2023-03-05T11:14:41.357Z,99472.05
2023-03-05T11:17:34.986Z,99478.63
2023-03-05T11:20:36.696Z,99474.26
2023-03-05T11:23:13.184Z,99471.73
2023-03-05T11:26:02.921Z,99464.45
2023-03-05T11:28:38.947Z,99466.98
2023-03-05T11:31:25.318Z,99465.12
2023-03-05T11:34:25.510Z,99459.20
2023-03-05T11:37:08.491Z,99460.89
2023-03-05T11:39:41.514Z,99458.17
2023-03-05T11:42:42.250Z,99454.79
2023-03-05T11:48:42.827Z,99448.98
2023-03-05T11:51:22.523Z,99446.78
2023-03-05T11:54:02.313Z,99440.85
2023-03-05T11:56:39.347Z,99439.32
2023-03-05T11:59:21.336Z,99433.74
2023-03-05T12:01:57.094Z,99434.75
2023-03-05T12:04:28.850Z,99432.86
2023-03-05T12:07:02.829Z,99433.84
2023-03-05T12:09:42.213Z,99430.09
2023-03-05T12:12:36.155Z,99431.06
2023-03-05T12:15:29.545Z,99425.98
2023-03-05T12:18:10.370Z,99421.55
2023-03-05T12:20:49.911Z,99423.02
2023-03-05T12:23:23.057Z,99420.80
2023-03-05T12:25:57.894Z,99418.05
2023-03-05T12:29:01.452Z,99418.87
2023-03-05T12:31:39.489Z,99416.13
2023-03-05T12:34:38.273Z,99416.61
2023-03-05T12:37:12.837Z,99409.64
2023-03-05T12:40:38.460Z,99412.30
2023-03-05T12:43:42.409Z,99405.52
2023-03-05T12:46:30.153Z,99403.48
2023-03-05T12:52:47.468Z,99400.95
2023-03-05T12:55:23.767Z,99395.67
2023-03-05T12:58:09.764Z,99394.84
2023-03-05T13:01:19.983Z,99390.63
2023-03-05T13:04:53.724Z,99384.91
2023-03-05T13:08:23.653Z,99384.27
2023-03-05T13:10:58.327Z,99385.00
2023-03-05T13:13:37.464Z,99380.97
2023-03-05T13:16:20.131Z,99384.54
2023-03-05T13:18:58.704Z,99385.73
2023-03-05T13:21:31.546Z,99378.13
2023-03-05T13:24:05.128Z,99381.69
2023-03-05T13:26:46.420Z,99378.98
2023-03-05T13:29:19.427Z,99381.88
2023-03-05T13:31:53.185Z,99378.01
2023-03-05T13:34:37.661Z,99376.00
2023-03-05T13:37:21.329Z,99375.35
2023-03-05T13:39:56.588Z,99370.80
2023-03-05T13:46:13.157Z,99366.25
2023-03-05T13:48:44.144Z,99365.40
2023-03-05T13:51:14.979Z,99367.80
2023-03-05T13:53:46.242Z,99361.55
2023-03-05T13:56:22.792Z,99359.69
2023-03-05T13:58:56.642Z,99356.30
2023-03-05T14:01:43.891Z,99352.09
2023-03-05T14:04:28.646Z,99349.72
2023-03-05T14:07:05.944Z,99351.55
2023-03-05T14:09:49.640Z,99346.63
2023-03-05T14:12:31.401Z,99339.02
2023-03-05T14:15:07.041Z,99339.85
2023-03-05T14:17:44.627Z,99338.15
2023-03-05T14:20:30.502Z,99344.87
2023-03-05T14:23:03.245Z,99345.35
2023-03-05T14:25:39.056Z,99344.32
2023-03-05T14:28:28.094Z,99337.75
2023-03-05T14:30:59.993Z,99336.06
2023-03-05T14:33:33.741Z,99338.61
2023-03-05T14:36:11.327Z,99335.08
2023-03-05T14:38:45.568Z,99331.71
2023-03-05T14:41:33.102Z,99331.03
2023-03-05T14:44:10.418Z,99329.68
2023-03-05T14:46:41.794Z,99330.04
2023-03-05T14:49:12.600Z,99331.74
2023-03-05T14:51:46.959Z,99327.52
2023-03-05T14:54:24.437Z,99321.98
2023-03-05T14:56:58.187Z,99322.49
2023-03-05T14:59:29.535Z,99320.15
2023-03-05T15:02:03.498Z,99322.36
2023-03-05T15:08:01.969Z,99316.64
2023-03-05T15:10:33.239Z,99318.15
2023-03-05T15:13:04.695Z,99318.98
2023-03-05T15:15:43.289Z,99321.84
2023-03-05T15:19:31.202Z,99320.63
2023-03-05T15:26:39.191Z,99323.63
2023-03-05T15:29:07.253Z,99329.33
2023-03-05T15:31:39.839Z,99326.45
2023-03-05T15:34:08.038Z,99326.60
2023-03-05T15:36:46.488Z,99325.73
2023-03-05T15:51:22.786Z,99323.21
2023-03-05T15:54:09.622Z,99320.73
2023-03-05T15:57:20.152Z,99325.92
2023-03-05T16:00:05.510Z,99327.20
2023-03-05T16:02:52.255Z,99331.55
2023-03-05T16:05:26.495Z,99330.66
2023-03-05T16:08:07.816Z,99332.29
2023-03-05T16:10:42.962Z,99331.73
2023-03-05T16:13:21.578Z,99333.02
2023-03-05T16:17:04.057Z,99335.52
2023-03-05T16:19:44.182Z,99338.13
2023-03-05T16:22:16.886Z,99340.94
2023-03-05T16:25:13.867Z,99341.08
2023-03-05T16:28:10.518Z,99343.21
2023-03-05T16:31:00.517Z,99342.31
2023-03-05T16:33:34.253Z,99352.90
2023-03-05T16:36:32.718Z,99353.02
2023-03-05T16:39:06.604Z,99351.77
2023-03-05T16:41:39.123Z,99349.21
2023-03-05T16:44:13.973Z,99350.36
2023-03-05T16:46:53.249Z,99349.50
2023-03-05T16:49:29.796Z,99349.13
2023-03-05T16:57:01.896Z,99362.81
2023-03-05T16:59:40.861Z,99363.81
2023-03-05T17:02:15.474Z,99365.66
2023-03-05T17:04:55.999Z,99366.33
2023-03-05T17:07:28.776Z,99367.47
2023-03-05T17:10:01.239Z,99366.94
2023-03-05T17:12:32.440Z,99365.21
2023-03-05T17:15:11.840Z,99365.82
2023-03-05T17:17:48.623Z,99368.62
2023-03-05T17:20:22.223Z,99367.88
2023-03-05T17:22:53.434Z,99369.33
2023-03-05T17:25:24.651Z,99370.79
2023-03-05T17:27:55.675Z,99369.84
2023-03-05T17:30:29.533Z,99372.45
2023-03-05T17:33:02.755Z,99372.88
2023-03-05T17:38:37.737Z,99370.16
2023-03-05T17:46:01.345Z,99366.41
2023-03-05T17:48:34.104Z,99367.36
2023-03-05T17:51:28.830Z,99362.77
2023-03-05T17:53:59.764Z,99365.11
2023-03-05T17:56:33.093Z,99363.73
2023-03-05T17:59:36.707Z,99356.42
2023-03-05T18:02:29.654Z,99362.77
2023-03-05T18:05:13.437Z,99361.33
2023-03-05T18:07:51.023Z,99365.14
2023-03-05T18:10:29.384Z,99363.90
2023-03-05T18:13:04.413Z,99365.84
2023-03-05T18:15:37.651Z,99360.39
2023-03-05T18:18:09.393Z,99358.14
2023-03-05T18:20:41.854Z,99355.88
2023-03-05T18:23:19.841Z,99360.02
2023-03-05T18:25:58.494Z,99361.77
2023-03-05T18:28:29.504Z,99366.56
2023-03-05T18:31:25.403Z,99366.18
2023-03-05T18:34:35.552Z,99367.30
2023-03-05T18:37:52.863Z,99364.75
2023-03-05T18:41:18.180Z,99368.25
2023-03-05T18:44:41.401Z,99364.70
2023-03-05T18:48:05.307Z,99367.19
2023-03-05T18:51:24.618Z,99369.45
2023-03-05T19:04:48.958Z,99365.74
2023-03-05T19:07:22.072Z,99361.23
2023-03-05T19:09:58.864Z,99362.13
2023-03-05T19:13:20.140Z,99361.16
2023-03-05T19:15:51.469Z,99365.41
2023-03-05T19:18:26.729Z,99364.42
2023-03-05T19:20:58.797Z,99365.82
2023-03-05T19:23:36.903Z,99366.51
2023-03-05T19:26:08.381Z,99364.85
2023-03-05T19:28:46.456Z,99367.94
2023-03-05T19:31:45.212Z,99369.66
2023-03-05T19:34:24.670Z,99369.90
2023-03-05T19:37:00.453Z,99370.17
2023-03-05T19:39:32.517Z,99372.50
2023-03-05T19:42:06.464Z,99369.29
2023-03-05T19:44:40.819Z,99369.63
2023-03-05T19:47:18.644Z,99364.39
2023-03-05T19:50:16.259Z,99364.50
2023-03-05T19:52:47.182Z,99365.45
2023-03-05T19:55:21.813Z,99362.67
2023-03-05T19:57:58.888Z,99367.79
2023-03-05T20:00:49.178Z,99368.86
2023-03-05T20:03:20.528Z,99371.97
2023-03-05T20:06:15.529Z,99374.23
2023-03-05T20:09:07.567Z,99377.70
2023-03-05T20:11:52.393Z,99373.26
2023-03-05T20:14:46.697Z,99371.66
2023-03-05T20:17:24.323Z,99375.13
2023-03-05T20:20:13.741Z,99373.71
2023-03-05T20:22:56.709Z,99376.54
2023-03-05T20:25:29.067Z,99375.20
2023-03-05T20:28:00.094Z,99372.20
2023-03-05T20:31:29.124Z,99373.84
2023-03-05T20:34:03.189Z,99368.83
2023-03-05T20:37:02.447Z,99369.08
2023-03-05T20:39:40.166Z,99371.92
2023-03-05T20:42:26.546Z,99372.70
2023-03-05T20:44:57.732Z,99369.77
2023-03-05T20:47:39.848Z,99372.79
2023-03-05T20:50:14.515Z,99373.59
2023-03-05T20:52:53.210Z,99367.46
2023-03-05T20:55:28.581Z,99370.59
2023-03-05T20:58:00.224Z,99369.98
2023-03-05T21:00:55.626Z,99377.44
2023-03-05T21:03:26.750Z,99370.46
2023-03-05T21:06:45.385Z,99371.09
2023-03-05T21:10:33.381Z,99371.29
2023-03-05T21:13:11.438Z,99369.02
2023-03-05T21:15:42.749Z,99366.68
2023-03-05T21:18:14.185Z,99367.14
2023-03-05T21:23:51.155Z,99361.54
2023-03-05T21:26:24.944Z,99366.79
2023-03-05T21:28:55.934Z,99360.89
2023-03-05T21:31:39.403Z,99357.79
2023-03-05T21:38:36.492Z,99356.77
2023-03-05T21:41:27.593Z,99354.88
2023-03-05T21:47:44.928Z,99349.91
2023-03-05T21:50:17.456Z,99352.38
2023-03-05T21:52:48.523Z,99351.52
2023-03-05T21:55:24.448Z,99348.24
2023-03-05T21:58:22.817Z,99346.52
2023-03-05T22:01:52.556Z,99345.29
2023-03-05T22:08:42.989Z,99345.80
2023-03-05T22:11:19.418Z,99347.02
2023-03-05T22:17:24.099Z,99349.23
2023-03-05T22:21:27.453Z,99354.13
2023-03-05T22:29:05.947Z,99347.45
2023-03-05T22:31:38.866Z,99346.35
2023-03-05T22:34:09.722Z,99348.09
2023-03-05T22:36:40.871Z,99343.39
2023-03-05T22:39:11.717Z,99345.40
2023-03-05T22:41:44.474Z,99344.05
2023-03-05T22:44:15.252Z,99343.02
2023-03-05T22:46:46.221Z,99340.64
2023-03-05T22:49:17.043Z,99340.42
2023-03-05T22:51:47.854Z,99342.91
2023-03-05T22:54:18.681Z,99340.85
2023-03-05T22:56:49.670Z,99341.27
2023-03-05T22:59:20.613Z,99344.21
2023-03-05T23:01:51.464Z,99338.23
2023-03-05T23:04:38.946Z,99342.88
2023-03-05T23:07:10.201Z,99345.11
2023-03-05T23:09:41.036Z,99344.16
2023-03-05T23:12:12.871Z,99345.55
2023-03-05T23:14:43.684Z,99342.27
2023-03-05T23:17:14.553Z,99340.33
2023-03-05T23:19:45.479Z,99340.08
2023-03-05T23:22:21.086Z,99335.58
2023-03-05T23:24:52.484Z,99337.20
2023-03-05T23:27:23.453Z,99337.81
2023-03-05T23:30:09.137Z,99332.72
2023-03-05T23:32:42.762Z,99335.52
2023-03-05T23:35:15.080Z,99335.31
2023-03-05T23:42:18.235Z,99335.77
2023-03-05T23:49:27.759Z,99328.70
2023-03-05T23:51:58.624Z,99328.87
2023-03-05T23:54:29.611Z,99328.86
2023-03-05T23:57:00.520Z,99328.52
2023-03-05T23:59:31.365Z,99328.27
